Gallup Municipal Airport
KGUP : now visible

Airfield :











YOU CAN JOIN US ON...

 
LOGIN :

Register | Disclaimer

   EN    FR    IT 

 









Legend :    VFR   Marginal VFR   IFR   Intensive IFR   Very Intensive IFR
Visi :
Ceiling :
>= 8 km
>= 3000ft
5 to 8 km
1000 to 3000 ft
1500m to 5 km
500 to 1000 ft
800 to 1500m
200 to 500 ft
< 800m
< 200 ft
Symbols :   Thunderstorms  Fog  Heavy snow  Heavy precipitations  Wind > 20 kt






- Airport Elevation : 6472 ft
- IATA code : GUP


KGUP - Gallup Municipal

CURRENT METAR :
  • 082353Z AUTO 26013G23KT 10SM CLR 32/M02 A3011 RMK AO2 SLP023 T03221022 10339 20306 56016

EXPIRED METARs :
  • 082253Z AUTO 27012G27KT 10SM SCT120 33/M02 A3013 RMK AO2 PK WND 25031/2156 SLP027 T03281017
  • 082153Z AUTO 24014G23KT 10SM CLR 33/M02 A3015 RMK AO2 PK WND 23031/2137 SLP019 T03331022

TAF KGUP
Valid from the 09 at 00:00 until the 10 at 00:00 UTC


082326Z 0900/0924 26013G21KT P6SM SCT120
FM090200 25011KT P6SM FEW120
FM090700 VRB04KT P6SM SKC
FM091800 26013G23KT P6SM FEW120
KZAB FIR / North America



MET'MAP, your aeronautical weather chart ! - Copyright ORBIFLY December 2007 - Disclaimer

ORBIFLY MET'MAP TEAM :

Programming & Development : Alexandra Zaïnal
Concept & original design : Baudouin d'Aumeries
Assistance for programming : Marc-Olivier Méhu
Technical & hardware support : Manuel Goepfert

Contact : metmap@orbifly.com




SOURCES & CREDITS :

   NOAA       Earth
Advisory